createdAt,value
2018-09-22T00:00:28.932Z,101121.91
2018-09-22T00:02:57.788Z,101124.85
2018-09-22T00:05:26.630Z,101124.27
2018-09-22T00:07:55.484Z,101128.42
2018-09-22T00:10:24.391Z,101135.58
2018-09-22T00:12:53.277Z,101141.66
2018-09-22T00:15:22.137Z,101150.89
2018-09-22T00:17:50.959Z,101141.38
2018-09-22T00:20:19.838Z,101143.20
2018-09-22T00:22:48.685Z,101142.37
2018-09-22T00:25:17.519Z,101142.57
2018-09-22T00:27:46.398Z,101146.31
2018-09-22T00:30:15.238Z,101146.50
2018-09-22T00:32:44.318Z,101149.39
2018-09-22T00:35:13.253Z,101152.02
2018-09-22T00:37:42.012Z,101154.02
2018-09-22T00:40:10.858Z,101160.31
2018-09-22T00:42:39.758Z,101157.69
2018-09-22T00:45:08.621Z,101162.75
2018-09-22T00:47:37.434Z,101161.81
2018-09-22T00:50:06.293Z,101167.05
2018-09-22T00:52:35.120Z,101171.82
2018-09-22T00:55:03.973Z,101173.48
2018-09-22T00:57:32.797Z,101183.05
2018-09-22T01:00:01.626Z,101187.70
2018-09-22T01:02:30.707Z,101186.49
2018-09-22T01:04:59.531Z,101187.62
2018-09-22T01:07:28.372Z,101190.43
2018-09-22T01:09:57.201Z,101187.94
2018-09-22T01:12:26.017Z,101190.70
2018-09-22T01:14:54.825Z,101200.12
2018-09-22T01:17:23.670Z,101202.55
2018-09-22T01:19:52.512Z,101217.09
2018-09-22T01:22:21.384Z,101220.34
2018-09-22T01:24:50.211Z,101222.20
2018-09-22T01:27:19.030Z,101218.08
2018-09-22T01:29:47.861Z,101226.94
2018-09-22T01:32:16.702Z,101226.70
2018-09-22T01:34:45.567Z,101234.86
2018-09-22T01:37:14.419Z,101236.98
2018-09-22T01:39:43.325Z,101227.91
2018-09-22T01:42:12.190Z,101237.94
2018-09-22T01:44:41.016Z,101240.92
2018-09-22T01:47:09.858Z,101241.48
2018-09-22T01:49:38.731Z,101240.22
2018-09-22T01:52:07.553Z,101239.20
2018-09-22T01:54:36.391Z,101243.34
2018-09-22T01:57:05.232Z,101243.22
2018-09-22T01:59:34.121Z,101242.25
2018-09-22T02:02:02.988Z,101245.04
2018-09-22T02:04:31.807Z,101259.61
2018-09-22T02:07:00.657Z,101254.34
2018-09-22T02:09:29.501Z,101259.64
2018-09-22T02:11:58.380Z,101265.38
2018-09-22T02:14:27.185Z,101267.92
2018-09-22T02:16:56.017Z,101265.01
2018-09-22T02:19:24.852Z,101272.19
2018-09-22T02:21:53.674Z,101263.05
2018-09-22T02:24:22.521Z,101256.45
2018-09-22T02:26:51.375Z,101259.53
2018-09-22T02:29:20.220Z,101264.73
2018-09-22T02:31:49.065Z,101257.71
2018-09-22T02:34:17.954Z,101264.76
2018-09-22T02:36:46.780Z,101270.98
2018-09-22T02:39:15.662Z,101274.41
2018-09-22T02:41:44.490Z,101281.20
2018-09-22T02:44:13.369Z,101272.98
2018-09-22T02:46:42.235Z,101275.90
2018-09-22T02:49:11.119Z,101280.20
2018-09-22T02:51:39.961Z,101283.55
2018-09-22T02:54:08.805Z,101288.25
2018-09-22T02:56:37.641Z,101284.83
2018-09-22T02:59:06.747Z,101291.06
2018-09-22T03:01:35.599Z,101283.69
2018-09-22T03:04:04.439Z,101294.11
2018-09-22T03:06:33.293Z,101296.62
2018-09-22T03:09:02.121Z,101305.13
2018-09-22T03:11:30.957Z,101299.20
2018-09-22T03:13:59.804Z,101298.84
2018-09-22T03:16:28.658Z,101301.63
2018-09-22T03:18:57.501Z,101314.46
2018-09-22T03:21:26.373Z,101312.84
2018-09-22T03:23:55.189Z,101313.11
2018-09-22T03:26:24.127Z,101311.62
2018-09-22T03:28:53.060Z,101314.33
2018-09-22T03:31:21.955Z,101310.88
2018-09-22T03:33:50.906Z,101306.62
2018-09-22T03:36:19.822Z,101324.13
2018-09-22T03:38:48.714Z,101318.97
2018-09-22T03:41:17.577Z,101324.20
2018-09-22T03:43:46.516Z,101323.62
2018-09-22T03:46:15.331Z,101330.05
2018-09-22T03:48:44.219Z,101323.91
2018-09-22T03:51:13.005Z,101328.64
2018-09-22T03:53:41.874Z,101342.57
2018-09-22T03:56:10.693Z,101338.44
2018-09-22T03:58:39.550Z,101355.95
2018-09-22T04:01:08.371Z,101339.30
2018-09-22T04:03:37.302Z,101340.23
2018-09-22T04:06:06.113Z,101338.88
2018-09-22T04:08:34.951Z,101350.34
2018-09-22T04:11:03.787Z,101348.02
2018-09-22T04:13:32.646Z,101342.27
2018-09-22T04:16:01.518Z,101341.45
2018-09-22T04:18:30.639Z,101337.83
2018-09-22T04:20:59.461Z,101327.76
2018-09-22T04:23:28.380Z,101336.97
2018-09-22T04:25:57.227Z,101331.54
2018-09-22T04:28:26.047Z,101347.09
2018-09-22T04:30:54.908Z,101348.69
2018-09-22T04:33:23.789Z,101347.00
2018-09-22T04:35:52.628Z,101333.84
2018-09-22T04:38:21.451Z,101348.83
2018-09-22T04:40:50.296Z,101350.41
2018-09-22T04:43:19.129Z,101351.89
2018-09-22T04:45:47.975Z,101345.98
2018-09-22T04:48:16.823Z,101352.11
2018-09-22T04:50:45.649Z,101347.91
2018-09-22T04:53:14.475Z,101359.30
2018-09-22T04:55:43.305Z,101352.46
2018-09-22T04:58:12.142Z,101359.81
2018-09-22T05:00:41.007Z,101366.48
2018-09-22T05:03:09.884Z,101367.16
2018-09-22T05:05:38.719Z,101363.58
2018-09-22T05:08:07.724Z,101369.42
2018-09-22T05:10:36.588Z,101379.26
2018-09-22T05:13:05.449Z,101382.13
2018-09-22T05:15:34.275Z,101392.89
2018-09-22T05:18:03.123Z,101393.70
2018-09-22T05:20:31.993Z,101383.07
2018-09-22T05:23:00.829Z,101381.64
2018-09-22T05:25:29.691Z,101379.05
2018-09-22T05:27:58.598Z,101376.16
2018-09-22T05:30:27.440Z,101386.54
2018-09-22T05:32:56.279Z,101387.02
2018-09-22T05:35:25.172Z,101393.67
2018-09-22T05:37:53.982Z,101382.56
2018-09-22T05:40:22.844Z,101396.32
2018-09-22T05:42:51.677Z,101395.09
2018-09-22T05:45:20.556Z,101390.78
2018-09-22T05:47:49.377Z,101394.04
2018-09-22T05:50:18.241Z,101403.49
2018-09-22T05:52:47.067Z,101398.69
2018-09-22T05:55:15.935Z,101392.74
2018-09-22T05:57:44.775Z,101392.74
2018-09-22T06:00:13.632Z,101409.89
2018-09-22T06:02:42.474Z,101408.94
2018-09-22T06:05:11.287Z,101399.53
2018-09-22T06:07:40.248Z,101392.07
2018-09-22T06:10:09.058Z,101391.88
2018-09-22T06:12:38.005Z,101382.62
2018-09-22T06:15:06.887Z,101398.36
2018-09-22T06:17:35.716Z,101393.84
2018-09-22T06:20:04.623Z,101412.41
2018-09-22T06:22:33.472Z,101418.89
2018-09-22T06:25:02.325Z,101426.20
2018-09-22T06:27:31.169Z,101429.81
2018-09-22T06:30:00.002Z,101415.03
2018-09-22T06:32:28.823Z,101409.59
2018-09-22T06:34:57.636Z,101410.03
2018-09-22T06:37:26.514Z,101411.85
2018-09-22T06:39:55.286Z,101411.56
2018-09-22T06:42:24.116Z,101417.55
2018-09-22T06:44:52.996Z,101414.96
2018-09-22T06:47:21.836Z,101427.70
2018-09-22T06:49:50.676Z,101437.82
2018-09-22T06:52:19.508Z,101426.70
2018-09-22T06:54:48.392Z,101420.06
2018-09-22T06:57:17.229Z,101415.00
2018-09-22T06:59:46.048Z,101437.23
2018-09-22T07:02:15.019Z,101446.55
2018-09-22T07:04:43.873Z,101452.02
2018-09-22T07:07:12.717Z,101454.95
2018-09-22T07:09:41.554Z,101449.74
2018-09-22T07:12:10.402Z,101444.44
2018-09-22T07:14:39.262Z,101453.78
2018-09-22T07:17:08.109Z,101453.33
2018-09-22T07:19:36.986Z,101445.64
2018-09-22T07:22:23.442Z,101448.73
2018-09-22T07:24:52.250Z,101446.00
2018-09-22T07:27:21.075Z,101438.34
2018-09-22T07:29:49.915Z,101442.27
2018-09-22T07:32:18.840Z,101444.91
2018-09-22T07:34:47.722Z,101455.75
2018-09-22T07:37:16.600Z,101442.95
2018-09-22T07:39:45.424Z,101448.25
2018-09-22T07:42:14.264Z,101454.47
2018-09-22T07:44:43.103Z,101443.10
2018-09-22T07:47:11.971Z,101453.80
2018-09-22T07:49:40.930Z,101452.03
2018-09-22T07:52:09.752Z,101451.17
2018-09-22T07:54:38.576Z,101445.89
2018-09-22T07:57:07.458Z,101447.98
2018-09-22T07:59:36.313Z,101448.33
2018-09-22T08:02:05.265Z,101450.64
2018-09-22T08:04:34.098Z,101452.48
2018-09-22T08:07:02.972Z,101463.94
2018-09-22T08:09:31.837Z,101463.22
2018-09-22T08:12:00.653Z,101459.44
2018-09-22T08:14:29.492Z,101458.72
2018-09-22T08:16:58.354Z,101459.44
2018-09-22T08:19:27.184Z,101460.95
2018-09-22T08:21:56.014Z,101469.88
2018-09-22T08:24:24.843Z,101461.89
2018-09-22T08:26:53.725Z,101467.66
2018-09-22T08:29:22.595Z,101460.06
2018-09-22T08:31:51.418Z,101458.45
2018-09-22T08:34:20.276Z,101460.23
2018-09-22T08:36:49.344Z,101475.39
2018-09-22T08:39:17.985Z,101464.61
2018-09-22T08:41:46.971Z,101472.61
2018-09-22T08:44:15.805Z,101468.34
2018-09-22T08:46:44.632Z,101470.92
2018-09-22T08:49:13.508Z,101469.47
2018-09-22T08:51:42.339Z,101476.94
2018-09-22T08:54:11.214Z,101470.19
2018-09-22T08:56:40.061Z,101470.11
2018-09-22T08:59:08.883Z,101478.89
2018-09-22T09:01:37.713Z,101476.17
2018-09-22T09:04:06.561Z,101466.48
2018-09-22T09:06:35.405Z,101451.39
2018-09-22T09:09:05.198Z,101452.27
2018-09-22T09:11:34.049Z,101453.11
2018-09-22T09:14:02.972Z,101445.03
2018-09-22T09:16:31.814Z,101443.17
2018-09-22T09:19:00.687Z,101455.45
2018-09-22T09:21:29.523Z,101453.41
2018-09-22T09:23:58.362Z,101448.33
2018-09-22T09:26:27.199Z,101470.80
2018-09-22T09:28:56.060Z,101458.79
2018-09-22T09:31:24.912Z,101455.60
2018-09-22T09:33:53.757Z,101447.03
2018-09-22T09:36:22.619Z,101422.09
2018-09-22T09:38:55.995Z,101423.87
2018-09-22T09:41:24.836Z,101418.67
2018-09-22T09:43:53.660Z,101412.81
2018-09-22T09:46:22.546Z,101406.67
2018-09-22T09:48:51.400Z,101417.90
2018-09-22T09:51:20.313Z,101412.76
2018-09-22T09:53:49.196Z,101419.09
2018-09-22T09:56:18.201Z,101411.52
2018-09-22T09:58:47.053Z,101413.16
2018-09-22T10:01:15.874Z,101412.48
2018-09-22T10:03:44.706Z,101416.54
2018-09-22T10:06:13.534Z,101416.25
2018-09-22T10:08:42.448Z,101421.19
2018-09-22T10:11:11.304Z,101414.41
2018-09-22T10:13:40.186Z,101426.33
2018-09-22T10:16:09.006Z,101409.89
2018-09-22T10:18:37.859Z,101416.94
2018-09-22T10:21:06.726Z,101417.33
2018-09-22T10:23:35.567Z,101408.23
2018-09-22T10:26:04.404Z,101407.77
2018-09-22T10:28:33.303Z,101408.44
2018-09-22T10:31:02.116Z,101405.40
2018-09-22T10:33:30.932Z,101419.73
2018-09-22T10:35:59.793Z,101427.55
2018-09-22T10:38:28.650Z,101414.31
2018-09-22T10:40:57.473Z,101422.42
2018-09-22T10:43:26.308Z,101416.53
2018-09-22T10:45:55.207Z,101410.88
2018-09-22T10:48:24.085Z,101412.51
2018-09-22T10:50:52.915Z,101416.19
2018-09-22T10:53:21.748Z,101403.70
2018-09-22T10:55:50.582Z,101404.59
2018-09-22T10:58:19.441Z,101398.77
2018-09-22T11:00:48.223Z,101405.27
2018-09-22T11:03:17.145Z,101404.55
2018-09-22T11:05:45.906Z,101399.03
2018-09-22T11:08:14.754Z,101397.76
2018-09-22T11:10:43.593Z,101398.82
2018-09-22T11:13:12.456Z,101409.16
2018-09-22T11:15:41.287Z,101401.61
2018-09-22T11:18:10.114Z,101402.30
2018-09-22T11:20:38.928Z,101395.80
2018-09-22T11:23:07.804Z,101397.42
2018-09-22T11:25:36.635Z,101394.16
2018-09-22T11:28:05.696Z,101401.85
2018-09-22T11:30:34.547Z,101396.70
2018-09-22T11:33:03.395Z,101390.94
2018-09-22T11:35:32.273Z,101396.69
2018-09-22T11:38:01.089Z,101390.92
2018-09-22T11:40:29.921Z,101392.25
2018-09-22T11:42:58.855Z,101390.48
2018-09-22T11:45:27.687Z,101381.55
2018-09-22T11:47:56.557Z,101385.95
2018-09-22T11:50:25.354Z,101381.60
2018-09-22T11:52:54.209Z,101378.01
2018-09-22T11:55:23.057Z,101388.12
2018-09-22T11:57:51.891Z,101382.36
2018-09-22T12:00:20.727Z,101372.48
2018-09-22T12:02:49.589Z,101352.92
2018-09-22T12:05:18.417Z,101372.55
2018-09-22T12:07:47.243Z,101375.00
2018-09-22T12:10:16.423Z,101374.49
2018-09-22T12:12:45.730Z,101373.79
2018-09-22T12:15:15.206Z,101370.56
2018-09-22T12:17:44.245Z,101374.03
2018-09-22T12:20:13.274Z,101377.15
2018-09-22T12:22:42.451Z,101400.66
2018-09-22T12:25:11.710Z,101412.52
2018-09-22T12:27:41.156Z,101406.52
2018-09-22T12:30:12.596Z,101407.00
2018-09-22T12:32:44.696Z,101419.46
2018-09-22T12:35:14.083Z,101458.97
2018-09-22T12:37:43.271Z,101453.96
2018-09-22T12:40:12.362Z,101469.36
2018-09-22T12:42:41.687Z,101497.89
2018-09-22T12:45:12.371Z,101523.77
2018-09-22T12:47:39.957Z,101524.34
2018-09-22T12:50:11.620Z,101510.63
2018-09-22T12:52:40.745Z,101489.39
2018-09-22T12:55:09.826Z,101482.92
2018-09-22T12:57:38.909Z,101461.50
2018-09-22T13:00:08.050Z,101466.38
2018-09-22T13:02:37.104Z,101457.45
2018-09-22T13:05:06.282Z,101451.22
2018-09-22T13:07:38.236Z,101442.19
2018-09-22T13:10:07.351Z,101429.97
2018-09-22T13:12:36.509Z,101425.66
2018-09-22T13:15:05.775Z,101434.53
2018-09-22T13:17:34.747Z,101436.52
2018-09-22T13:20:04.026Z,101458.97
2018-09-22T13:22:33.362Z,101451.57
2018-09-22T13:25:02.375Z,101454.95
2018-09-22T13:27:31.655Z,101462.62
2018-09-22T13:30:00.903Z,101468.94
2018-09-22T13:32:30.184Z,101475.95
2018-09-22T13:34:59.491Z,101452.44
2018-09-22T13:37:28.577Z,101441.28
2018-09-22T13:39:57.661Z,101436.83
2018-09-22T13:42:26.827Z,101430.59
2018-09-22T13:44:56.047Z,101428.27
2018-09-22T13:47:25.190Z,101431.35
2018-09-22T13:49:55.877Z,101431.47
2018-09-22T13:52:25.982Z,101438.78
2018-09-22T13:54:57.750Z,101441.47
2018-09-22T13:57:26.771Z,101434.58
2018-09-22T13:59:56.108Z,101441.67
2018-09-22T14:02:25.194Z,101449.56
2018-09-22T14:04:54.753Z,101449.00
2018-09-22T14:07:23.744Z,101440.10
2018-09-22T14:09:52.995Z,101449.14
2018-09-22T14:12:24.715Z,101450.41
2018-09-22T14:14:56.782Z,101455.95
2018-09-22T14:17:25.836Z,101466.20
2018-09-22T14:19:54.982Z,101470.86
2018-09-22T14:22:27.302Z,101470.29
2018-09-22T14:25:01.733Z,101469.23
2018-09-22T14:27:33.561Z,101466.30
2018-09-22T14:30:02.800Z,101470.97
2018-09-22T14:32:32.011Z,101474.00
2018-09-22T14:35:01.594Z,101471.61
2018-09-22T14:37:30.939Z,101469.16
2018-09-22T14:39:59.949Z,101473.25
2018-09-22T14:42:29.044Z,101466.94
2018-09-22T14:44:58.126Z,101461.27
2018-09-22T14:47:27.237Z,101459.77
2018-09-22T14:49:56.279Z,101454.41
2018-09-22T14:52:25.441Z,101443.80
2018-09-22T14:54:55.504Z,101431.99
2018-09-22T14:57:25.661Z,101431.63
2018-09-22T14:59:54.756Z,101421.38
2018-09-22T15:02:26.777Z,101422.16
2018-09-22T15:04:56.351Z,101416.52
2018-09-22T15:07:25.428Z,101414.48
2018-09-22T15:09:54.723Z,101418.38
2018-09-22T15:12:23.878Z,101422.09
2018-09-22T15:14:53.006Z,101431.98
2018-09-22T15:17:22.219Z,101435.91
2018-09-22T15:19:51.585Z,101426.91
2018-09-22T15:22:20.691Z,101430.13
2018-09-22T15:24:49.984Z,101423.96
2018-09-22T15:27:19.312Z,101423.83
2018-09-22T15:29:48.400Z,101423.11
2018-09-22T15:32:17.498Z,101415.85
2018-09-22T15:34:46.600Z,101421.88
2018-09-22T15:37:15.472Z,101417.94
2018-09-22T15:39:44.753Z,101427.61
2018-09-22T15:42:15.980Z,101429.91
2018-09-22T15:44:45.111Z,101421.02
2018-09-22T15:47:14.447Z,101421.25
2018-09-22T15:49:44.072Z,101422.61
2018-09-22T15:52:14.381Z,101410.00
2018-09-22T15:54:43.764Z,101407.91
2018-09-22T15:57:13.232Z,101407.28
2018-09-22T15:59:42.528Z,101393.36
2018-09-22T16:02:11.651Z,101402.02
2018-09-22T16:04:40.817Z,101397.11
2018-09-22T16:07:09.944Z,101393.36
2018-09-22T16:09:43.855Z,101388.22
2018-09-22T16:12:16.351Z,101387.50
2018-09-22T16:14:52.897Z,101392.67
2018-09-22T16:17:20.945Z,101391.58
2018-09-22T16:19:51.328Z,101391.80
2018-09-22T16:22:20.553Z,101378.56
2018-09-22T16:24:49.868Z,101373.61
2018-09-22T16:27:19.052Z,101370.91
2018-09-22T16:29:48.155Z,101362.15
2018-09-22T16:32:17.287Z,101364.82
2018-09-22T16:34:49.444Z,101364.88
2018-09-22T16:37:18.543Z,101360.66
2018-09-22T16:39:47.877Z,101369.54
2018-09-22T16:42:21.675Z,101358.94
2018-09-22T16:44:49.760Z,101352.95
2018-09-22T16:47:18.945Z,101356.53
2018-09-22T16:49:50.573Z,101366.91
2018-09-22T16:52:19.701Z,101360.74
2018-09-22T16:54:48.966Z,101362.02
2018-09-22T16:57:18.163Z,101373.48
2018-09-22T16:59:47.180Z,101368.46
2018-09-22T17:02:16.288Z,101366.23
2018-09-22T17:04:45.330Z,101364.55
2018-09-22T17:07:14.547Z,101365.19
2018-09-22T17:09:44.187Z,101367.91
2018-09-22T17:12:21.261Z,101362.31
2018-09-22T17:14:50.505Z,101373.98
2018-09-22T17:17:19.842Z,101380.19
2018-09-22T17:19:51.991Z,101375.34
2018-09-22T17:22:20.946Z,101375.72
2018-09-22T17:24:50.438Z,101368.83
2018-09-22T17:27:22.754Z,101369.98
2018-09-22T17:29:51.883Z,101365.60
2018-09-22T17:32:20.995Z,101371.91
2018-09-22T17:34:50.378Z,101368.13
2018-09-22T17:37:22.353Z,101369.04
2018-09-22T17:39:51.686Z,101370.23
2018-09-22T17:42:23.873Z,101372.84
2018-09-22T17:44:55.668Z,101381.85
2018-09-22T17:47:25.070Z,101381.47
2018-09-22T17:49:54.353Z,101392.05
2018-09-22T17:52:24.900Z,101394.57
2018-09-22T17:54:56.795Z,101389.49
2018-09-22T17:57:28.727Z,101377.23
2018-09-22T17:59:59.762Z,101384.86
2018-09-22T18:02:29.042Z,101374.16
2018-09-22T18:04:58.111Z,101382.84
2018-09-22T18:07:27.240Z,101391.80
2018-09-22T18:09:56.325Z,101388.86
2018-09-22T18:12:25.401Z,101399.87
2018-09-22T18:14:54.611Z,101398.42
2018-09-22T18:17:23.706Z,101405.45
2018-09-22T18:19:53.145Z,101402.01
2018-09-22T18:22:23.019Z,101404.15
2018-09-22T18:24:53.914Z,101402.36
2018-09-22T18:27:23.229Z,101404.22
2018-09-22T18:29:52.430Z,101406.61
2018-09-22T18:32:21.543Z,101412.38
2018-09-22T18:34:50.889Z,101415.20
2018-09-22T18:37:20.037Z,101411.53
2018-09-22T18:39:49.173Z,101401.16
2018-09-22T18:42:25.854Z,101407.45
2018-09-22T18:44:54.875Z,101401.50
2018-09-22T18:47:24.325Z,101402.92
2018-09-22T18:49:55.615Z,101409.22
2018-09-22T18:52:32.408Z,101415.33
2018-09-22T18:55:04.105Z,101412.44
2018-09-22T18:57:33.305Z,101412.51
2018-09-22T19:00:02.468Z,101410.02
2018-09-22T19:02:31.537Z,101410.52
2018-09-22T19:05:00.688Z,101412.24
2018-09-22T19:07:32.779Z,101413.11
2018-09-22T19:10:07.648Z,101401.56
2018-09-22T19:12:36.717Z,101401.23
2018-09-22T19:15:30.986Z,101405.14
2018-09-22T19:18:11.262Z,101398.34
2018-09-22T19:20:56.306Z,101394.27
2018-09-22T19:23:31.091Z,101377.09
2018-09-22T19:26:08.217Z,101387.66
2018-09-22T19:28:41.281Z,101389.70
2018-09-22T19:31:14.050Z,101393.78
2018-09-22T19:33:54.626Z,101403.02
2018-09-22T19:36:45.767Z,101400.66
2018-09-22T19:39:33.828Z,101399.30
2018-09-22T19:42:11.835Z,101400.06
2018-09-22T19:45:02.713Z,101399.80
2018-09-22T19:47:40.687Z,101397.48
2018-09-22T19:50:11.964Z,101389.28
2018-09-22T19:52:59.137Z,101384.08
2018-09-22T19:55:28.209Z,101385.44
2018-09-22T19:57:57.329Z,101383.91
2018-09-22T20:00:26.576Z,101384.70
2018-09-22T20:02:55.603Z,101378.18
2018-09-22T20:05:27.285Z,101372.24
2018-09-22T20:08:03.474Z,101369.23
2018-09-22T20:10:35.740Z,101384.98
2018-09-22T20:13:04.975Z,101381.03
2018-09-22T20:15:36.500Z,101371.95
2018-09-22T20:18:05.701Z,101364.80
2018-09-22T20:20:37.679Z,101364.08
2018-09-22T20:23:04.094Z,101368.94
2018-09-22T20:25:33.336Z,101363.50
2018-09-22T20:28:05.170Z,101357.78
2018-09-22T20:30:34.411Z,101352.21
2018-09-22T20:33:03.801Z,101352.62
2018-09-22T20:35:32.864Z,101356.64
2018-09-22T20:38:02.137Z,101352.55
2018-09-22T20:40:33.802Z,101354.03
2018-09-22T20:43:03.410Z,101347.38
2018-09-22T20:45:32.268Z,101349.88
2018-09-22T20:48:01.127Z,101343.33
2018-09-22T20:50:29.992Z,101342.11
2018-09-22T20:52:58.819Z,101335.17
2018-09-22T20:55:27.669Z,101328.73
2018-09-22T20:57:56.500Z,101320.94
2018-09-22T21:00:25.345Z,101326.38
2018-09-22T21:02:54.205Z,101326.59
2018-09-22T21:05:23.064Z,101328.95
2018-09-22T21:07:51.932Z,101328.86
2018-09-22T21:10:20.887Z,101323.36
2018-09-22T21:12:49.672Z,101328.49
2018-09-22T21:15:18.498Z,101335.52
2018-09-22T21:17:47.372Z,101331.67
2018-09-22T21:20:16.277Z,101321.05
2018-09-22T21:22:45.128Z,101316.89
2018-09-22T21:25:14.043Z,101316.76
2018-09-22T21:27:42.936Z,101313.47
2018-09-22T21:30:11.769Z,101308.63
2018-09-22T21:32:40.618Z,101301.30
2018-09-22T21:35:09.491Z,101288.34
2018-09-22T21:37:38.352Z,101287.80
2018-09-22T21:40:07.413Z,101284.36
2018-09-22T21:42:36.297Z,101284.43
2018-09-22T21:45:05.509Z,101275.41
2018-09-22T21:47:34.379Z,101278.69
2018-09-22T21:50:03.217Z,101268.17
2018-09-22T21:52:32.043Z,101283.49
2018-09-22T21:55:00.904Z,101283.27
2018-09-22T21:57:29.744Z,101283.14
2018-09-22T21:59:58.625Z,101286.80
2018-09-22T22:02:27.508Z,101284.00
2018-09-22T22:04:56.343Z,101267.64
2018-09-22T22:07:25.191Z,101273.35
2018-09-22T22:09:54.060Z,101273.08
2018-09-22T22:12:22.898Z,101260.16
2018-09-22T22:14:51.765Z,101263.25
2018-09-22T22:17:20.657Z,101269.05
2018-09-22T22:19:49.500Z,101270.27
2018-09-22T22:22:18.347Z,101270.84
2018-09-22T22:24:47.190Z,101278.70
2018-09-22T22:27:16.044Z,101272.90
2018-09-22T22:29:44.905Z,101265.47
2018-09-22T22:32:13.757Z,101268.49
2018-09-22T22:34:42.629Z,101258.61
2018-09-22T22:37:11.518Z,101247.93
2018-09-22T22:39:40.388Z,101252.82
2018-09-22T22:42:09.254Z,101246.07
2018-09-22T22:44:38.152Z,101254.09
2018-09-22T22:47:07.057Z,101247.66
2018-09-22T22:49:35.959Z,101258.39
2018-09-22T22:52:04.799Z,101253.00
2018-09-22T22:54:33.664Z,101255.58
2018-09-22T22:57:02.521Z,101250.51
2018-09-22T22:59:31.386Z,101238.41
2018-09-22T23:02:00.277Z,101237.42
2018-09-22T23:04:29.153Z,101243.80
2018-09-22T23:06:57.985Z,101241.49
2018-09-22T23:09:26.843Z,101237.14
2018-09-22T23:11:55.654Z,101224.31
2018-09-22T23:14:24.540Z,101219.38
2018-09-22T23:16:53.412Z,101212.59
2018-09-22T23:19:22.265Z,101213.53
2018-09-22T23:21:51.099Z,101195.62
2018-09-22T23:24:19.972Z,101192.38
2018-09-22T23:26:48.821Z,101209.45
2018-09-22T23:29:17.724Z,101206.11
2018-09-22T23:31:46.525Z,101198.72
2018-09-22T23:34:15.392Z,101185.63
2018-09-22T23:36:44.232Z,101189.48
2018-09-22T23:39:13.201Z,101191.70
2018-09-22T23:41:42.464Z,101189.84
2018-09-22T23:44:11.381Z,101184.27
2018-09-22T23:46:40.166Z,101180.56
2018-09-22T23:49:09.335Z,101183.86
2018-09-22T23:51:38.195Z,101175.84
2018-09-22T23:54:07.087Z,101185.55
2018-09-22T23:56:35.951Z,101180.56
2018-09-22T23:59:04.799Z,101183.77
